createdAt,value
2022-08-10T00:04:08.057Z,11.20
2022-08-10T00:09:07.269Z,10.97
2022-08-10T00:14:05.590Z,13.47
2022-08-10T00:19:05.138Z,10.70
2022-08-10T00:24:03.322Z,10.13
2022-08-10T00:29:01.522Z,11.00
2022-08-10T00:33:59.676Z,12.60
2022-08-10T00:38:59.232Z,13.27
2022-08-10T00:43:57.419Z,10.03
2022-08-10T00:49:00.630Z,10.50
2022-08-10T00:54:00.406Z,13.70
2022-08-10T00:58:58.620Z,10.50
2022-08-10T01:04:39.653Z,9.60
2022-08-10T01:09:23.664Z,12.07
2022-08-10T01:14:30.083Z,13.43
2022-08-10T01:19:49.277Z,12.10
2022-08-10T01:25:11.673Z,12.70
2022-08-10T01:30:13.529Z,11.93
2022-08-10T01:35:16.274Z,11.87
2022-08-10T01:40:16.905Z,13.80
2022-08-10T01:45:18.387Z,12.80
2022-08-10T01:50:23.591Z,11.90
2022-08-10T01:55:24.011Z,12.17
2022-08-10T02:00:24.506Z,12.33
2022-08-10T02:05:27.093Z,13.13
2022-08-10T02:10:27.448Z,13.13
2022-08-10T02:15:31.492Z,13.20
2022-08-10T02:20:34.720Z,11.43
2022-08-10T02:25:41.191Z,10.27
2022-08-10T02:30:43.646Z,17.40
2022-08-10T02:35:55.066Z,14.13
2022-08-10T02:45:15.101Z,13.63
2022-08-10T02:46:27.648Z,10.50
2022-08-10T02:52:08.009Z,12.40
2022-08-10T02:56:55.528Z,16.03
2022-08-10T03:02:00.363Z,11.80
2022-08-10T03:07:02.173Z,13.33
2022-08-10T03:12:35.348Z,11.30
2022-08-10T03:17:23.348Z,14.80
2022-08-10T03:22:22.459Z,14.53
2022-08-10T03:27:21.222Z,14.03
2022-08-10T03:32:23.208Z,12.40
2022-08-10T03:37:21.429Z,13.63
2022-08-10T03:42:21.925Z,15.00
2022-08-10T03:47:24.444Z,14.60
2022-08-10T03:52:22.857Z,16.13
2022-08-10T03:57:21.921Z,15.43
2022-08-10T04:02:44.422Z,14.43
2022-08-10T04:07:40.641Z,20.30
2022-08-10T04:12:38.829Z,16.87
2022-08-10T04:18:05.222Z,15.33
2022-08-10T04:23:00.629Z,19.40
2022-08-10T04:27:59.759Z,15.03
2022-08-10T04:33:01.792Z,14.73
2022-08-10T04:38:01.879Z,20.30
2022-08-10T04:43:07.412Z,20.40
2022-08-10T04:48:43.039Z,16.23
2022-08-10T04:53:29.318Z,15.73
2022-08-10T04:58:27.526Z,13.47
2022-08-10T05:03:27.129Z,12.23
2022-08-10T05:08:26.164Z,21.60
2022-08-10T05:13:24.356Z,25.70
2022-08-10T05:18:22.575Z,22.53
2022-08-10T05:23:22.160Z,19.30
2022-08-10T05:28:20.626Z,14.20
2022-08-10T05:33:22.240Z,12.30
2022-08-10T05:38:24.032Z,14.93
2022-08-10T05:43:24.052Z,29.70
2022-08-10T05:48:54.508Z,18.20
2022-08-10T05:54:03.114Z,15.73
2022-08-10T05:59:00.234Z,16.70
2022-08-10T06:03:59.739Z,24.03
2022-08-10T06:09:01.783Z,22.27
2022-08-10T06:14:18.612Z,17.17
2022-08-10T06:19:18.310Z,17.13
2022-08-10T06:24:21.915Z,20.03
2022-08-10T06:29:25.159Z,17.90
2022-08-10T06:34:28.184Z,14.63
2022-08-10T06:39:36.574Z,20.50
2022-08-10T06:44:42.892Z,15.27
2022-08-10T06:49:41.081Z,22.00
2022-08-10T06:54:42.257Z,31.60
2022-08-10T06:59:45.361Z,14.93
2022-08-10T07:04:46.108Z,16.63
2022-08-10T07:09:46.994Z,13.10
2022-08-10T07:14:46.564Z,15.83
2022-08-10T07:19:49.940Z,11.70
2022-08-10T07:24:53.024Z,9.53
2022-08-10T07:29:53.527Z,12.43
2022-08-10T07:34:55.247Z,16.87
2022-08-10T07:40:02.608Z,11.80
2022-08-10T07:45:06.243Z,9.60
2022-08-10T07:50:09.582Z,16.57
2022-08-10T07:55:14.489Z,9.83
2022-08-10T08:00:13.734Z,10.23
2022-08-10T08:05:13.692Z,12.40
2022-08-10T08:10:34.227Z,9.80
2022-08-10T08:16:20.786Z,9.53
2022-08-10T08:20:54.367Z,8.00
2022-08-10T08:25:55.562Z,13.73
2022-08-10T08:30:54.739Z,17.50
2022-08-10T08:35:54.038Z,11.30
2022-08-10T08:41:00.259Z,11.07
2022-08-10T08:46:17.842Z,13.40
2022-08-10T08:52:17.097Z,13.43
2022-08-10T08:56:59.879Z,15.10
2022-08-10T09:02:14.357Z,15.93
2022-08-10T09:08:00.251Z,18.03
2022-08-10T09:13:07.901Z,20.63
2022-08-10T09:18:13.993Z,18.13
2022-08-10T09:23:21.207Z,18.43
2022-08-10T09:28:43.425Z,17.03
2022-08-10T09:36:24.760Z,20.47
2022-08-10T09:40:06.699Z,17.07
2022-08-10T09:44:57.712Z,19.77
2022-08-10T09:50:06.819Z,21.63
2022-08-10T09:55:15.763Z,23.93
2022-08-10T10:00:17.523Z,58.40
2022-08-10T10:05:31.058Z,26.50
2022-08-10T10:10:46.574Z,26.63
2022-08-10T10:15:54.257Z,27.10
2022-08-10T10:21:01.591Z,27.03
2022-08-10T10:26:15.940Z,26.10
2022-08-10T10:31:27.899Z,24.10
2022-08-10T10:36:27.782Z,25.43
2022-08-10T10:41:56.233Z,29.50
2022-08-10T10:47:07.289Z,27.87
2022-08-10T10:52:15.694Z,30.23
2022-08-10T10:57:23.751Z,30.40
2022-08-10T11:03:01.678Z,29.27
2022-08-10T11:08:04.308Z,27.37
2022-08-10T11:14:25.087Z,27.30
2022-08-10T11:18:55.626Z,27.67
2022-08-10T11:24:47.892Z,29.70
2022-08-10T11:29:33.266Z,27.67
2022-08-10T11:34:48.401Z,24.70
2022-08-10T11:40:02.301Z,34.53
2022-08-10T11:45:04.163Z,29.27
2022-08-10T11:50:12.411Z,30.67
2022-08-10T11:55:18.111Z,33.73
2022-08-10T12:00:17.237Z,33.60
2022-08-10T12:05:20.975Z,31.40
2022-08-10T12:10:24.244Z,34.53
2022-08-10T12:15:28.938Z,31.17
2022-08-10T12:20:32.604Z,30.83
2022-08-10T12:25:58.047Z,29.83
2022-08-10T12:31:00.173Z,28.83
2022-08-10T12:36:19.801Z,31.53
2022-08-10T12:41:43.635Z,33.13
2022-08-10T12:46:50.154Z,34.27
2022-08-10T12:51:57.453Z,36.00
2022-08-10T12:57:01.139Z,36.13
2022-08-10T13:02:09.886Z,29.03
2022-08-10T13:08:03.978Z,31.37
2022-08-10T13:12:36.201Z,42.87
2022-08-10T13:17:42.778Z,40.77
2022-08-10T13:22:44.009Z,34.80
2022-08-10T13:28:01.332Z,39.37
2022-08-10T13:33:03.985Z,36.47
2022-08-10T13:38:04.722Z,56.67
2022-08-10T13:43:07.054Z,34.40
2022-08-10T13:48:14.213Z,34.07
2022-08-10T13:53:15.991Z,32.30
2022-08-10T13:58:15.640Z,34.07
2022-08-10T14:03:17.130Z,32.87
2022-08-10T14:08:20.254Z,45.13
2022-08-10T14:13:20.559Z,34.57
2022-08-10T14:18:19.843Z,33.07
2022-08-10T14:23:19.588Z,44.53
2022-08-10T14:28:22.507Z,31.70
2022-08-10T14:33:24.487Z,32.70
2022-08-10T14:38:26.546Z,30.73
2022-08-10T14:43:29.195Z,31.83
2022-08-10T14:48:33.005Z,28.73
2022-08-10T14:53:35.147Z,31.00
2022-08-10T14:58:38.904Z,29.97
2022-08-10T15:04:03.364Z,31.47
2022-08-10T15:09:12.577Z,27.40
2022-08-10T15:14:43.449Z,25.40
2022-08-10T15:20:03.420Z,32.73
2022-08-10T15:25:06.798Z,24.67
2022-08-10T15:30:17.152Z,24.23
2022-08-10T15:35:33.512Z,25.40
2022-08-10T15:40:51.084Z,22.13
2022-08-10T15:45:57.771Z,21.97
2022-08-10T15:51:05.825Z,22.20
2022-08-10T15:56:12.684Z,18.97
2022-08-10T16:02:12.741Z,15.80
2022-08-10T16:06:36.781Z,20.10
2022-08-10T16:11:41.790Z,15.30
2022-08-10T16:16:41.013Z,20.23
2022-08-10T16:21:40.108Z,18.10
2022-08-10T16:26:44.006Z,12.80
2022-08-10T16:31:51.073Z,16.60
2022-08-10T16:36:53.946Z,17.97
2022-08-10T16:42:03.385Z,18.43
2022-08-10T16:47:04.785Z,19.10
2022-08-10T16:52:40.778Z,16.83
2022-08-10T16:57:42.766Z,14.60
2022-08-10T17:02:47.143Z,15.23
2022-08-10T17:07:45.883Z,13.10
2022-08-10T17:12:51.131Z,15.17
2022-08-10T17:17:52.306Z,9.67
2022-08-10T17:22:54.955Z,14.90
2022-08-10T17:28:04.797Z,10.77
2022-08-10T17:33:11.957Z,14.67
2022-08-10T17:38:18.887Z,13.50
2022-08-10T17:43:46.212Z,12.90
2022-08-10T17:48:43.211Z,12.70
2022-08-10T17:53:43.775Z,12.70
2022-08-10T17:58:51.248Z,12.60
2022-08-10T18:03:53.202Z,16.67
2022-08-10T18:09:01.357Z,11.07
2022-08-10T18:14:10.745Z,10.80
2022-08-10T18:19:11.550Z,14.40
2022-08-10T18:24:16.466Z,13.70
2022-08-10T18:29:19.669Z,13.30
2022-08-10T18:34:21.681Z,11.93
2022-08-10T18:39:23.420Z,12.00
2022-08-10T18:44:24.422Z,12.70
2022-08-10T18:49:31.614Z,12.30
2022-08-10T18:54:44.355Z,14.27
2022-08-10T19:00:10.735Z,12.23
2022-08-10T19:05:30.112Z,12.77
2022-08-10T19:10:40.462Z,11.30
2022-08-10T19:15:49.405Z,13.47
2022-08-10T19:20:52.068Z,9.70
2022-08-10T19:26:42.417Z,12.23
2022-08-10T19:31:44.602Z,8.80
2022-08-10T19:36:51.930Z,12.27
2022-08-10T19:41:56.589Z,7.50
2022-08-10T19:47:06.674Z,12.77
2022-08-10T19:52:11.857Z,10.13
2022-08-10T19:57:14.681Z,7.27
2022-08-10T20:02:22.775Z,7.90
2022-08-10T20:07:30.405Z,13.23
2022-08-10T20:12:39.253Z,11.63
2022-08-10T20:17:52.718Z,14.50
2022-08-10T20:23:05.980Z,13.47
2022-08-10T20:28:12.653Z,14.17
2022-08-10T20:33:18.475Z,10.30
2022-08-10T20:38:27.274Z,10.10
2022-08-10T20:43:35.514Z,10.73
2022-08-10T20:48:43.926Z,10.70
2022-08-10T20:53:47.802Z,10.07
2022-08-10T20:59:10.120Z,9.23
2022-08-10T21:04:18.764Z,10.57
2022-08-10T21:09:28.781Z,9.97
2022-08-10T21:14:40.090Z,12.40
2022-08-10T21:20:05.939Z,11.23
2022-08-10T21:25:07.421Z,10.80
2022-08-10T21:30:09.438Z,11.80
2022-08-10T21:35:20.267Z,10.03
2022-08-10T21:41:18.142Z,9.50
2022-08-10T21:46:32.214Z,9.33
2022-08-10T21:52:00.981Z,10.07
2022-08-10T21:57:25.785Z,16.50
2022-08-10T22:02:50.506Z,12.20
2022-08-10T22:08:12.054Z,8.93
2022-08-10T22:13:32.658Z,10.50
2022-08-10T22:18:58.744Z,8.90
2022-08-10T22:24:32.542Z,7.63
2022-08-10T22:29:54.675Z,9.53
2022-08-10T22:35:21.598Z,10.10
2022-08-10T22:40:40.696Z,16.00
2022-08-10T22:45:57.529Z,9.07
2022-08-10T22:51:01.473Z,11.07
2022-08-10T22:56:14.880Z,15.23
2022-08-10T23:01:38.136Z,8.30
2022-08-10T23:06:40.365Z,8.63
2022-08-10T23:11:43.291Z,10.83
2022-08-10T23:17:02.747Z,10.70
2022-08-10T23:22:05.618Z,10.50
2022-08-10T23:27:12.386Z,9.50
2022-08-10T23:32:31.752Z,9.90
2022-08-10T23:37:31.393Z,13.90
2022-08-10T23:42:38.621Z,8.70
2022-08-10T23:47:42.620Z,10.97
2022-08-10T23:52:42.223Z,9.27
2022-08-10T23:57:45.482Z,8.87
